sensor_id;sensor_type;location;lat;lon;timestamp;P1;durP1;ratioP1;P2;durP2;ratioP2
47529;SDS011;33272;51.922;7.730;2023-12-28T00:00:43;3.90;;;2.13;;
47529;SDS011;33272;51.922;7.730;2023-12-28T00:03:09;2.10;;;1.90;;
47529;SDS011;33272;51.922;7.730;2023-12-28T00:05:37;2.80;;;1.87;;
47529;SDS011;33272;51.922;7.730;2023-12-28T00:08:04;2.73;;;2.07;;
47529;SDS011;33272;51.922;7.730;2023-12-28T00:10:31;4.13;;;2.10;;
47529;SDS011;33272;51.922;7.730;2023-12-28T00:12:57;2.80;;;2.03;;
47529;SDS011;33272;51.922;7.730;2023-12-28T00:15:24;2.17;;;1.90;;
47529;SDS011;33272;51.922;7.730;2023-12-28T00:17:51;3.53;;;2.13;;
47529;SDS011;33272;51.922;7.730;2023-12-28T00:20:17;2.47;;;2.00;;
47529;SDS011;33272;51.922;7.730;2023-12-28T00:22:45;3.00;;;2.40;;
47529;SDS011;33272;51.922;7.730;2023-12-28T00:25:12;3.10;;;2.03;;
47529;SDS011;33272;51.922;7.730;2023-12-28T00:27:40;2.20;;;1.87;;
47529;SDS011;33272;51.922;7.730;2023-12-28T00:30:07;2.60;;;2.00;;
47529;SDS011;33272;51.922;7.730;2023-12-28T00:32:34;6.30;;;2.67;;
47529;SDS011;33272;51.922;7.730;2023-12-28T00:35:01;2.43;;;2.17;;
47529;SDS011;33272;51.922;7.730;2023-12-28T00:37:27;3.27;;;2.33;;
47529;SDS011;33272;51.922;7.730;2023-12-28T00:39:56;2.93;;;2.20;;
47529;SDS011;33272;51.922;7.730;2023-12-28T00:42:22;3.93;;;2.40;;
47529;SDS011;33272;51.922;7.730;2023-12-28T00:44:49;2.97;;;2.50;;
47529;SDS011;33272;51.922;7.730;2023-12-28T00:47:15;2.83;;;2.20;;
47529;SDS011;33272;51.922;7.730;2023-12-28T00:49:42;2.40;;;2.20;;
47529;SDS011;33272;51.922;7.730;2023-12-28T00:52:09;3.50;;;2.27;;
47529;SDS011;33272;51.922;7.730;2023-12-28T00:54:35;2.80;;;2.00;;
47529;SDS011;33272;51.922;7.730;2023-12-28T00:57:04;2.33;;;1.87;;
47529;SDS011;33272;51.922;7.730;2023-12-28T00:59:31;3.13;;;2.30;;
47529;SDS011;33272;51.922;7.730;2023-12-28T01:01:57;4.97;;;2.57;;
47529;SDS011;33272;51.922;7.730;2023-12-28T01:04:24;3.93;;;2.63;;
47529;SDS011;33272;51.922;7.730;2023-12-28T01:06:51;3.33;;;2.10;;
47529;SDS011;33272;51.922;7.730;2023-12-28T01:09:18;3.23;;;2.23;;
47529;SDS011;33272;51.922;7.730;2023-12-28T01:11:45;3.77;;;2.20;;
47529;SDS011;33272;51.922;7.730;2023-12-28T01:14:13;4.17;;;2.60;;
47529;SDS011;33272;51.922;7.730;2023-12-28T01:16:40;5.53;;;2.40;;
47529;SDS011;33272;51.922;7.730;2023-12-28T01:19:09;3.43;;;2.40;;
47529;SDS011;33272;51.922;7.730;2023-12-28T01:21:35;4.57;;;2.23;;
47529;SDS011;33272;51.922;7.730;2023-12-28T01:24:02;5.10;;;2.10;;
47529;SDS011;33272;51.922;7.730;2023-12-28T01:26:29;2.97;;;2.23;;
47529;SDS011;33272;51.922;7.730;2023-12-28T01:28:55;3.13;;;2.17;;
47529;SDS011;33272;51.922;7.730;2023-12-28T01:31:23;3.83;;;2.50;;
47529;SDS011;33272;51.922;7.730;2023-12-28T01:33:50;3.10;;;2.43;;
47529;SDS011;33272;51.922;7.730;2023-12-28T01:36:17;4.67;;;2.47;;
47529;SDS011;33272;51.922;7.730;2023-12-28T01:38:44;3.53;;;2.50;;
47529;SDS011;33272;51.922;7.730;2023-12-28T01:41:10;2.60;;;2.40;;
47529;SDS011;33272;51.922;7.730;2023-12-28T01:43:37;2.83;;;2.50;;
47529;SDS011;33272;51.922;7.730;2023-12-28T01:46:04;3.20;;;2.53;;
47529;SDS011;33272;51.922;7.730;2023-12-28T01:48:32;2.77;;;2.30;;
47529;SDS011;33272;51.922;7.730;2023-12-28T01:50:59;3.17;;;2.20;;
47529;SDS011;33272;51.922;7.730;2023-12-28T01:53:25;3.37;;;2.60;;
47529;SDS011;33272;51.922;7.730;2023-12-28T01:55:52;3.03;;;2.37;;
47529;SDS011;33272;51.922;7.730;2023-12-28T01:58:19;3.53;;;2.20;;
47529;SDS011;33272;51.922;7.730;2023-12-28T02:00:46;2.90;;;2.50;;
47529;SDS011;33272;51.922;7.730;2023-12-28T02:03:13;2.90;;;2.27;;
47529;SDS011;33272;51.922;7.730;2023-12-28T02:05:41;3.80;;;2.57;;
47529;SDS011;33272;51.922;7.730;2023-12-28T02:08:08;5.23;;;2.43;;
47529;SDS011;33272;51.922;7.730;2023-12-28T02:10:35;2.50;;;2.23;;
47529;SDS011;33272;51.922;7.730;2023-12-28T02:13:01;3.17;;;2.40;;
47529;SDS011;33272;51.922;7.730;2023-12-28T02:15:28;3.20;;;2.20;;
47529;SDS011;33272;51.922;7.730;2023-12-28T02:17:57;2.97;;;2.13;;
47529;SDS011;33272;51.922;7.730;2023-12-28T02:20:27;4.47;;;2.47;;
47529;SDS011;33272;51.922;7.730;2023-12-28T02:22:57;2.67;;;2.10;;
47529;SDS011;33272;51.922;7.730;2023-12-28T02:25:25;3.40;;;2.40;;
47529;SDS011;33272;51.922;7.730;2023-12-28T02:27:52;2.63;;;2.07;;
47529;SDS011;33272;51.922;7.730;2023-12-28T02:30:20;2.53;;;2.10;;
47529;SDS011;33272;51.922;7.730;2023-12-28T02:32:52;4.17;;;2.47;;
47529;SDS011;33272;51.922;7.730;2023-12-28T02:35:25;3.57;;;2.47;;
47529;SDS011;33272;51.922;7.730;2023-12-28T02:37:56;3.93;;;2.07;;
47529;SDS011;33272;51.922;7.730;2023-12-28T02:40:29;3.63;;;2.90;;
47529;SDS011;33272;51.922;7.730;2023-12-28T02:43:01;4.27;;;2.10;;
47529;SDS011;33272;51.922;7.730;2023-12-28T02:45:28;3.70;;;2.20;;
47529;SDS011;33272;51.922;7.730;2023-12-28T02:47:55;3.27;;;2.47;;
47529;SDS011;33272;51.922;7.730;2023-12-28T02:50:22;2.80;;;2.50;;
47529;SDS011;33272;51.922;7.730;2023-12-28T02:52:48;2.77;;;2.37;;
47529;SDS011;33272;51.922;7.730;2023-12-28T02:55:15;6.10;;;2.30;;
47529;SDS011;33272;51.922;7.730;2023-12-28T02:57:43;3.60;;;2.50;;
47529;SDS011;33272;51.922;7.730;2023-12-28T03:00:10;3.27;;;2.60;;
47529;SDS011;33272;51.922;7.730;2023-12-28T03:02:37;3.37;;;2.63;;
47529;SDS011;33272;51.922;7.730;2023-12-28T03:05:04;2.50;;;2.30;;
47529;SDS011;33272;51.922;7.730;2023-12-28T03:07:31;3.17;;;2.43;;
47529;SDS011;33272;51.922;7.730;2023-12-28T03:09:58;3.33;;;2.40;;
47529;SDS011;33272;51.922;7.730;2023-12-28T03:12:25;3.07;;;2.20;;
47529;SDS011;33272;51.922;7.730;2023-12-28T03:14:53;2.90;;;2.33;;
47529;SDS011;33272;51.922;7.730;2023-12-28T03:17:20;2.50;;;2.23;;
47529;SDS011;33272;51.922;7.730;2023-12-28T03:19:46;3.60;;;2.20;;
47529;SDS011;33272;51.922;7.730;2023-12-28T03:22:13;3.40;;;2.20;;
47529;SDS011;33272;51.922;7.730;2023-12-28T03:24:40;2.50;;;2.27;;
47529;SDS011;33272;51.922;7.730;2023-12-28T03:27:07;2.83;;;2.50;;
47529;SDS011;33272;51.922;7.730;2023-12-28T03:29:33;3.10;;;2.40;;
47529;SDS011;33272;51.922;7.730;2023-12-28T03:32:02;4.13;;;2.30;;
47529;SDS011;33272;51.922;7.730;2023-12-28T03:34:29;4.43;;;2.43;;
47529;SDS011;33272;51.922;7.730;2023-12-28T03:36:55;2.97;;;2.30;;
47529;SDS011;33272;51.922;7.730;2023-12-28T03:39:23;2.30;;;1.90;;
47529;SDS011;33272;51.922;7.730;2023-12-28T03:41:49;7.60;;;2.50;;
47529;SDS011;33272;51.922;7.730;2023-12-28T03:44:17;3.10;;;2.17;;
47529;SDS011;33272;51.922;7.730;2023-12-28T03:46:44;3.07;;;2.00;;
47529;SDS011;33272;51.922;7.730;2023-12-28T03:49:12;3.63;;;2.23;;
47529;SDS011;33272;51.922;7.730;2023-12-28T03:51:41;4.00;;;2.13;;
47529;SDS011;33272;51.922;7.730;2023-12-28T03:54:11;2.30;;;2.00;;
47529;SDS011;33272;51.922;7.730;2023-12-28T03:56:37;3.77;;;2.53;;
47529;SDS011;33272;51.922;7.730;2023-12-28T03:59:05;3.17;;;2.37;;
47529;SDS011;33272;51.922;7.730;2023-12-28T04:01:31;2.90;;;2.17;;
47529;SDS011;33272;51.922;7.730;2023-12-28T04:03:58;3.70;;;2.23;;
47529;SDS011;33272;51.922;7.730;2023-12-28T04:06:26;3.20;;;2.50;;
47529;SDS011;33272;51.922;7.730;2023-12-28T04:08:53;2.60;;;2.13;;
47529;SDS011;33272;51.922;7.730;2023-12-28T04:11:20;3.50;;;2.70;;
47529;SDS011;33272;51.922;7.730;2023-12-28T04:13:46;2.63;;;2.37;;
47529;SDS011;33272;51.922;7.730;2023-12-28T04:16:13;3.83;;;2.20;;
47529;SDS011;33272;51.922;7.730;2023-12-28T04:18:40;2.50;;;1.90;;
47529;SDS011;33272;51.922;7.730;2023-12-28T04:21:07;6.47;;;2.43;;
47529;SDS011;33272;51.922;7.730;2023-12-28T04:23:36;4.87;;;2.07;;
47529;SDS011;33272;51.922;7.730;2023-12-28T04:26:03;3.93;;;2.30;;
47529;SDS011;33272;51.922;7.730;2023-12-28T04:28:29;3.67;;;2.40;;
47529;SDS011;33272;51.922;7.730;2023-12-28T04:30:56;2.67;;;2.17;;
47529;SDS011;33272;51.922;7.730;2023-12-28T04:33:23;2.57;;;2.00;;
47529;SDS011;33272;51.922;7.730;2023-12-28T04:35:49;3.67;;;2.50;;
47529;SDS011;33272;51.922;7.730;2023-12-28T04:38:16;4.03;;;2.10;;
47529;SDS011;33272;51.922;7.730;2023-12-28T04:40:44;4.80;;;2.40;;
47529;SDS011;33272;51.922;7.730;2023-12-28T04:43:10;3.47;;;2.57;;
47529;SDS011;33272;51.922;7.730;2023-12-28T04:45:37;4.23;;;2.40;;
47529;SDS011;33272;51.922;7.730;2023-12-28T04:48:04;3.23;;;2.30;;
47529;SDS011;33272;51.922;7.730;2023-12-28T04:50:31;3.70;;;2.73;;
47529;SDS011;33272;51.922;7.730;2023-12-28T04:52:57;3.63;;;2.13;;
47529;SDS011;33272;51.922;7.730;2023-12-28T04:55:24;3.63;;;2.40;;
47529;SDS011;33272;51.922;7.730;2023-12-28T04:57:52;3.47;;;2.40;;
47529;SDS011;33272;51.922;7.730;2023-12-28T05:00:19;4.57;;;2.30;;
47529;SDS011;33272;51.922;7.730;2023-12-28T05:02:45;3.23;;;2.30;;
47529;SDS011;33272;51.922;7.730;2023-12-28T05:05:12;4.33;;;2.30;;
47529;SDS011;33272;51.922;7.730;2023-12-28T05:07:39;4.10;;;2.37;;
47529;SDS011;33272;51.922;7.730;2023-12-28T05:10:05;2.97;;;2.20;;
47529;SDS011;33272;51.922;7.730;2023-12-28T05:12:35;3.97;;;2.30;;
47529;SDS011;33272;51.922;7.730;2023-12-28T05:15:04;4.80;;;2.40;;
47529;SDS011;33272;51.922;7.730;2023-12-28T05:17:31;4.70;;;2.60;;
47529;SDS011;33272;51.922;7.730;2023-12-28T05:19:58;4.67;;;2.33;;
47529;SDS011;33272;51.922;7.730;2023-12-28T05:22:24;5.20;;;2.57;;
47529;SDS011;33272;51.922;7.730;2023-12-28T05:24:51;4.70;;;2.40;;
47529;SDS011;33272;51.922;7.730;2023-12-28T05:27:17;5.00;;;2.33;;
47529;SDS011;33272;51.922;7.730;2023-12-28T05:29:44;2.90;;;2.20;;
47529;SDS011;33272;51.922;7.730;2023-12-28T05:32:12;3.70;;;2.07;;
47529;SDS011;33272;51.922;7.730;2023-12-28T05:34:38;3.47;;;2.57;;
47529;SDS011;33272;51.922;7.730;2023-12-28T05:37:05;6.03;;;2.37;;
47529;SDS011;33272;51.922;7.730;2023-12-28T05:39:32;2.93;;;2.40;;
47529;SDS011;33272;51.922;7.730;2023-12-28T05:41:58;6.13;;;2.53;;
47529;SDS011;33272;51.922;7.730;2023-12-28T05:44:25;4.70;;;2.90;;
47529;SDS011;33272;51.922;7.730;2023-12-28T05:46:51;3.20;;;2.10;;
47529;SDS011;33272;51.922;7.730;2023-12-28T05:49:19;3.50;;;2.30;;
47529;SDS011;33272;51.922;7.730;2023-12-28T05:51:46;3.10;;;2.30;;
47529;SDS011;33272;51.922;7.730;2023-12-28T05:54:12;3.07;;;2.23;;
47529;SDS011;33272;51.922;7.730;2023-12-28T05:56:39;6.27;;;2.40;;
47529;SDS011;33272;51.922;7.730;2023-12-28T05:59:06;2.73;;;1.93;;
47529;SDS011;33272;51.922;7.730;2023-12-28T06:01:40;2.43;;;2.20;;
47529;SDS011;33272;51.922;7.730;2023-12-28T06:04:08;4.70;;;2.17;;
47529;SDS011;33272;51.922;7.730;2023-12-28T06:06:35;4.87;;;1.80;;
47529;SDS011;33272;51.922;7.730;2023-12-28T06:09:02;5.03;;;2.57;;
47529;SDS011;33272;51.922;7.730;2023-12-28T06:11:29;5.07;;;2.17;;
47529;SDS011;33272;51.922;7.730;2023-12-28T06:13:56;4.77;;;2.30;;
47529;SDS011;33272;51.922;7.730;2023-12-28T06:16:23;6.90;;;2.20;;
47529;SDS011;33272;51.922;7.730;2023-12-28T06:18:50;3.40;;;2.70;;
47529;SDS011;33272;51.922;7.730;2023-12-28T06:21:17;4.30;;;2.03;;
47529;SDS011;33272;51.922;7.730;2023-12-28T06:23:45;6.83;;;2.40;;
47529;SDS011;33272;51.922;7.730;2023-12-28T06:26:12;4.20;;;2.23;;
47529;SDS011;33272;51.922;7.730;2023-12-28T06:28:38;5.07;;;2.40;;
47529;SDS011;33272;51.922;7.730;2023-12-28T06:31:05;4.20;;;2.30;;
47529;SDS011;33272;51.922;7.730;2023-12-28T06:33:34;4.93;;;2.07;;
47529;SDS011;33272;51.922;7.730;2023-12-28T06:36:04;3.63;;;2.43;;
47529;SDS011;33272;51.922;7.730;2023-12-28T06:38:31;3.83;;;2.20;;
47529;SDS011;33272;51.922;7.730;2023-12-28T06:40:59;5.13;;;2.50;;
47529;SDS011;33272;51.922;7.730;2023-12-28T06:43:26;6.50;;;2.20;;
47529;SDS011;33272;51.922;7.730;2023-12-28T06:45:52;5.63;;;2.53;;
47529;SDS011;33272;51.922;7.730;2023-12-28T06:48:19;5.63;;;2.10;;
47529;SDS011;33272;51.922;7.730;2023-12-28T06:50:46;4.43;;;2.40;;
47529;SDS011;33272;51.922;7.730;2023-12-28T06:53:12;5.23;;;1.90;;
47529;SDS011;33272;51.922;7.730;2023-12-28T06:55:39;5.27;;;2.30;;
47529;SDS011;33272;51.922;7.730;2023-12-28T06:58:07;3.47;;;2.10;;
47529;SDS011;33272;51.922;7.730;2023-12-28T07:00:34;4.63;;;2.20;;
47529;SDS011;33272;51.922;7.730;2023-12-28T07:03:00;3.50;;;1.90;;
47529;SDS011;33272;51.922;7.730;2023-12-28T07:05:27;4.20;;;2.17;;
47529;SDS011;33272;51.922;7.730;2023-12-28T07:07:53;5.73;;;2.50;;
47529;SDS011;33272;51.922;7.730;2023-12-28T07:10:20;6.07;;;2.07;;
47529;SDS011;33272;51.922;7.730;2023-12-28T07:12:46;4.77;;;2.07;;
47529;SDS011;33272;51.922;7.730;2023-12-28T07:15:14;4.77;;;2.00;;
47529;SDS011;33272;51.922;7.730;2023-12-28T07:17:41;3.70;;;2.40;;
47529;SDS011;33272;51.922;7.730;2023-12-28T07:20:08;5.63;;;1.80;;
47529;SDS011;33272;51.922;7.730;2023-12-28T07:22:36;7.17;;;2.57;;
47529;SDS011;33272;51.922;7.730;2023-12-28T07:25:03;3.17;;;2.10;;
47529;SDS011;33272;51.922;7.730;2023-12-28T07:27:30;3.20;;;2.00;;
47529;SDS011;33272;51.922;7.730;2023-12-28T07:29:57;3.87;;;1.83;;
47529;SDS011;33272;51.922;7.730;2023-12-28T07:32:25;5.23;;;1.97;;
47529;SDS011;33272;51.922;7.730;2023-12-28T07:34:52;3.20;;;1.97;;
47529;SDS011;33272;51.922;7.730;2023-12-28T07:37:18;5.37;;;2.53;;
47529;SDS011;33272;51.922;7.730;2023-12-28T07:39:46;3.93;;;2.30;;
47529;SDS011;33272;51.922;7.730;2023-12-28T07:42:12;6.73;;;2.50;;
47529;SDS011;33272;51.922;7.730;2023-12-28T07:44:40;5.73;;;2.30;;
47529;SDS011;33272;51.922;7.730;2023-12-28T07:47:06;5.10;;;2.10;;
47529;SDS011;33272;51.922;7.730;2023-12-28T07:49:34;5.57;;;2.17;;
47529;SDS011;33272;51.922;7.730;2023-12-28T07:52:01;8.37;;;2.20;;
47529;SDS011;33272;51.922;7.730;2023-12-28T07:54:28;8.87;;;2.33;;
47529;SDS011;33272;51.922;7.730;2023-12-28T07:56:54;4.37;;;1.90;;
47529;SDS011;33272;51.922;7.730;2023-12-28T07:59:21;3.77;;;2.00;;
47529;SDS011;33272;51.922;7.730;2023-12-28T08:01:47;8.97;;;2.57;;
47529;SDS011;33272;51.922;7.730;2023-12-28T08:04:14;5.20;;;2.33;;
47529;SDS011;33272;51.922;7.730;2023-12-28T08:06:42;3.30;;;2.20;;
47529;SDS011;33272;51.922;7.730;2023-12-28T08:09:09;5.83;;;2.13;;
47529;SDS011;33272;51.922;7.730;2023-12-28T08:11:36;5.23;;;2.37;;
47529;SDS011;33272;51.922;7.730;2023-12-28T08:14:02;5.17;;;1.90;;
47529;SDS011;33272;51.922;7.730;2023-12-28T08:16:29;4.33;;;1.90;;
47529;SDS011;33272;51.922;7.730;2023-12-28T08:18:55;6.63;;;2.27;;
47529;SDS011;33272;51.922;7.730;2023-12-28T08:21:22;5.53;;;2.93;;
47529;SDS011;33272;51.922;7.730;2023-12-28T08:23:50;7.83;;;2.57;;
47529;SDS011;33272;51.922;7.730;2023-12-28T08:26:16;3.53;;;2.43;;
47529;SDS011;33272;51.922;7.730;2023-12-28T08:28:43;10.83;;;3.03;;
47529;SDS011;33272;51.922;7.730;2023-12-28T08:31:10;4.53;;;2.17;;
47529;SDS011;33272;51.922;7.730;2023-12-28T08:33:37;6.37;;;2.53;;
47529;SDS011;33272;51.922;7.730;2023-12-28T08:36:05;6.20;;;2.27;;
47529;SDS011;33272;51.922;7.730;2023-12-28T08:38:32;4.83;;;2.60;;
47529;SDS011;33272;51.922;7.730;2023-12-28T08:41:00;3.33;;;1.97;;
47529;SDS011;33272;51.922;7.730;2023-12-28T08:43:28;6.27;;;2.60;;
47529;SDS011;33272;51.922;7.730;2023-12-28T08:45:55;8.40;;;2.40;;
47529;SDS011;33272;51.922;7.730;2023-12-28T08:48:21;6.27;;;2.23;;
47529;SDS011;33272;51.922;7.730;2023-12-28T08:50:48;5.20;;;2.37;;
47529;SDS011;33272;51.922;7.730;2023-12-28T08:53:15;5.30;;;2.30;;
47529;SDS011;33272;51.922;7.730;2023-12-28T08:55:41;6.27;;;2.70;;
47529;SDS011;33272;51.922;7.730;2023-12-28T08:58:09;5.40;;;2.37;;
47529;SDS011;33272;51.922;7.730;2023-12-28T09:00:36;6.03;;;2.93;;
47529;SDS011;33272;51.922;7.730;2023-12-28T09:03:03;4.03;;;2.13;;
47529;SDS011;33272;51.922;7.730;2023-12-28T09:05:30;6.40;;;2.33;;
47529;SDS011;33272;51.922;7.730;2023-12-28T09:07:56;6.63;;;2.40;;
47529;SDS011;33272;51.922;7.730;2023-12-28T09:10:23;4.93;;;2.27;;
47529;SDS011;33272;51.922;7.730;2023-12-28T09:12:49;7.47;;;2.83;;
47529;SDS011;33272;51.922;7.730;2023-12-28T09:15:18;6.63;;;2.57;;
47529;SDS011;33272;51.922;7.730;2023-12-28T09:17:44;6.20;;;2.40;;
47529;SDS011;33272;51.922;7.730;2023-12-28T09:20:11;7.40;;;2.37;;
47529;SDS011;33272;51.922;7.730;2023-12-28T09:22:38;7.03;;;2.70;;
47529;SDS011;33272;51.922;7.730;2023-12-28T09:25:04;9.60;;;2.97;;
47529;SDS011;33272;51.922;7.730;2023-12-28T09:27:31;6.83;;;2.93;;
47529;SDS011;33272;51.922;7.730;2023-12-28T09:29:58;9.57;;;2.43;;
47529;SDS011;33272;51.922;7.730;2023-12-28T09:32:26;7.30;;;2.43;;
47529;SDS011;33272;51.922;7.730;2023-12-28T09:34:52;6.60;;;2.30;;
47529;SDS011;33272;51.922;7.730;2023-12-28T09:37:19;6.30;;;2.53;;
47529;SDS011;33272;51.922;7.730;2023-12-28T09:39:45;7.80;;;2.63;;
47529;SDS011;33272;51.922;7.730;2023-12-28T09:42:15;12.47;;;3.03;;
47529;SDS011;33272;51.922;7.730;2023-12-28T09:44:43;8.60;;;2.43;;
47529;SDS011;33272;51.922;7.730;2023-12-28T09:47:10;8.23;;;2.53;;
47529;SDS011;33272;51.922;7.730;2023-12-28T09:49:39;6.20;;;2.77;;
47529;SDS011;33272;51.922;7.730;2023-12-28T09:52:07;8.87;;;2.70;;
47529;SDS011;33272;51.922;7.730;2023-12-28T09:54:34;7.40;;;3.40;;
47529;SDS011;33272;51.922;7.730;2023-12-28T09:57:01;7.23;;;2.60;;
47529;SDS011;33272;51.922;7.730;2023-12-28T09:59:28;7.93;;;2.67;;
47529;SDS011;33272;51.922;7.730;2023-12-28T10:01:55;6.60;;;2.80;;
47529;SDS011;33272;51.922;7.730;2023-12-28T10:04:23;7.63;;;2.53;;
47529;SDS011;33272;51.922;7.730;2023-12-28T10:06:51;11.20;;;4.00;;
47529;SDS011;33272;51.922;7.730;2023-12-28T10:09:18;6.27;;;2.60;;
47529;SDS011;33272;51.922;7.730;2023-12-28T10:11:44;9.73;;;3.23;;
47529;SDS011;33272;51.922;7.730;2023-12-28T10:14:11;7.03;;;2.37;;
47529;SDS011;33272;51.922;7.730;2023-12-28T10:16:40;7.13;;;2.70;;
47529;SDS011;33272;51.922;7.730;2023-12-28T10:19:07;6.83;;;2.30;;
47529;SDS011;33272;51.922;7.730;2023-12-28T10:21:33;8.20;;;2.77;;
47529;SDS011;33272;51.922;7.730;2023-12-28T10:24:02;7.30;;;2.63;;
47529;SDS011;33272;51.922;7.730;2023-12-28T10:26:28;9.90;;;2.60;;
47529;SDS011;33272;51.922;7.730;2023-12-28T10:28:56;9.23;;;2.20;;
47529;SDS011;33272;51.922;7.730;2023-12-28T10:31:25;9.60;;;3.10;;
47529;SDS011;33272;51.922;7.730;2023-12-28T10:33:51;7.23;;;2.53;;
47529;SDS011;33272;51.922;7.730;2023-12-28T10:36:18;9.10;;;3.10;;
47529;SDS011;33272;51.922;7.730;2023-12-28T10:38:49;9.07;;;2.70;;
47529;SDS011;33272;51.922;7.730;2023-12-28T10:41:20;7.83;;;2.57;;
47529;SDS011;33272;51.922;7.730;2023-12-28T10:43:51;10.90;;;2.60;;
47529;SDS011;33272;51.922;7.730;2023-12-28T10:46:30;12.33;;;3.10;;
47529;SDS011;33272;51.922;7.730;2023-12-28T10:48:59;6.40;;;2.70;;
47529;SDS011;33272;51.922;7.730;2023-12-28T10:51:27;6.23;;;2.60;;
47529;SDS011;33272;51.922;7.730;2023-12-28T10:53:57;8.47;;;2.50;;
47529;SDS011;33272;51.922;7.730;2023-12-28T10:56:32;5.47;;;2.90;;
47529;SDS011;33272;51.922;7.730;2023-12-28T10:59:05;7.17;;;2.57;;
47529;SDS011;33272;51.922;7.730;2023-12-28T11:01:39;9.33;;;3.00;;
47529;SDS011;33272;51.922;7.730;2023-12-28T11:04:09;7.87;;;3.30;;
47529;SDS011;33272;51.922;7.730;2023-12-28T11:06:42;11.07;;;3.03;;
47529;SDS011;33272;51.922;7.730;2023-12-28T11:09:09;5.20;;;2.17;;
47529;SDS011;33272;51.922;7.730;2023-12-28T11:11:39;6.17;;;2.73;;
47529;SDS011;33272;51.922;7.730;2023-12-28T11:14:06;9.47;;;3.23;;
47529;SDS011;33272;51.922;7.730;2023-12-28T11:16:33;10.07;;;3.13;;
47529;SDS011;33272;51.922;7.730;2023-12-28T11:19:03;7.83;;;2.73;;
47529;SDS011;33272;51.922;7.730;2023-12-28T11:21:30;10.70;;;3.60;;
47529;SDS011;33272;51.922;7.730;2023-12-28T11:23:58;9.57;;;3.33;;
47529;SDS011;33272;51.922;7.730;2023-12-28T11:26:25;8.37;;;2.93;;
47529;SDS011;33272;51.922;7.730;2023-12-28T11:29:01;9.67;;;3.10;;
47529;SDS011;33272;51.922;7.730;2023-12-28T11:31:28;7.47;;;2.63;;
47529;SDS011;33272;51.922;7.730;2023-12-28T11:33:57;8.30;;;3.00;;
47529;SDS011;33272;51.922;7.730;2023-12-28T11:36:25;8.80;;;3.10;;
47529;SDS011;33272;51.922;7.730;2023-12-28T11:39:01;10.47;;;3.07;;
47529;SDS011;33272;51.922;7.730;2023-12-28T11:41:30;7.00;;;2.23;;
47529;SDS011;33272;51.922;7.730;2023-12-28T11:43:57;8.73;;;2.90;;
47529;SDS011;33272;51.922;7.730;2023-12-28T11:46:30;8.53;;;3.10;;
47529;SDS011;33272;51.922;7.730;2023-12-28T11:49:02;8.70;;;2.43;;
47529;SDS011;33272;51.922;7.730;2023-12-28T11:51:29;8.07;;;2.77;;
47529;SDS011;33272;51.922;7.730;2023-12-28T11:53:56;6.73;;;2.73;;
47529;SDS011;33272;51.922;7.730;2023-12-28T11:56:24;7.73;;;2.73;;
47529;SDS011;33272;51.922;7.730;2023-12-28T11:58:51;8.87;;;2.73;;
47529;SDS011;33272;51.922;7.730;2023-12-28T12:01:19;9.90;;;2.60;;
47529;SDS011;33272;51.922;7.730;2023-12-28T12:03:46;8.00;;;2.67;;
47529;SDS011;33272;51.922;7.730;2023-12-28T12:06:12;9.47;;;2.47;;
47529;SDS011;33272;51.922;7.730;2023-12-28T12:08:39;9.17;;;2.80;;
47529;SDS011;33272;51.922;7.730;2023-12-28T12:11:06;6.90;;;2.27;;
47529;SDS011;33272;51.922;7.730;2023-12-28T12:13:33;7.13;;;2.70;;
47529;SDS011;33272;51.922;7.730;2023-12-28T12:15:59;5.33;;;2.60;;
47529;SDS011;33272;51.922;7.730;2023-12-28T12:18:32;8.33;;;2.33;;
47529;SDS011;33272;51.922;7.730;2023-12-28T12:20:58;8.70;;;2.80;;
47529;SDS011;33272;51.922;7.730;2023-12-28T12:23:25;5.73;;;2.63;;
47529;SDS011;33272;51.922;7.730;2023-12-28T12:25:51;9.73;;;2.40;;
47529;SDS011;33272;51.922;7.730;2023-12-28T12:28:18;11.07;;;3.37;;
47529;SDS011;33272;51.922;7.730;2023-12-28T12:30:49;10.17;;;2.80;;
47529;SDS011;33272;51.922;7.730;2023-12-28T12:33:17;7.70;;;2.40;;
47529;SDS011;33272;51.922;7.730;2023-12-28T12:35:45;6.20;;;2.37;;
47529;SDS011;33272;51.922;7.730;2023-12-28T12:38:11;9.47;;;2.70;;
47529;SDS011;33272;51.922;7.730;2023-12-28T12:40:38;10.57;;;2.97;;
47529;SDS011;33272;51.922;7.730;2023-12-28T12:43:06;8.57;;;2.67;;
47529;SDS011;33272;51.922;7.730;2023-12-28T12:45:34;7.60;;;2.60;;
47529;SDS011;33272;51.922;7.730;2023-12-28T12:48:01;8.60;;;3.00;;
47529;SDS011;33272;51.922;7.730;2023-12-28T12:50:28;7.33;;;2.43;;
47529;SDS011;33272;51.922;7.730;2023-12-28T12:52:56;8.60;;;3.00;;
47529;SDS011;33272;51.922;7.730;2023-12-28T12:55:25;7.77;;;2.50;;
47529;SDS011;33272;51.922;7.730;2023-12-28T12:57:51;9.03;;;2.77;;
47529;SDS011;33272;51.922;7.730;2023-12-28T13:00:20;8.70;;;2.63;;
47529;SDS011;33272;51.922;7.730;2023-12-28T13:02:48;8.07;;;3.17;;
47529;SDS011;33272;51.922;7.730;2023-12-28T13:05:16;7.10;;;2.40;;
47529;SDS011;33272;51.922;7.730;2023-12-28T13:07:43;8.90;;;2.77;;
47529;SDS011;33272;51.922;7.730;2023-12-28T13:10:11;12.17;;;3.03;;
47529;SDS011;33272;51.922;7.730;2023-12-28T13:12:38;8.57;;;2.93;;
47529;SDS011;33272;51.922;7.730;2023-12-28T13:15:05;8.40;;;3.43;;
47529;SDS011;33272;51.922;7.730;2023-12-28T13:17:31;6.83;;;2.87;;
47529;SDS011;33272;51.922;7.730;2023-12-28T13:19:57;8.00;;;2.60;;
47529;SDS011;33272;51.922;7.730;2023-12-28T13:22:24;8.07;;;2.37;;
47529;SDS011;33272;51.922;7.730;2023-12-28T13:24:51;6.03;;;2.27;;
47529;SDS011;33272;51.922;7.730;2023-12-28T13:27:19;8.97;;;2.70;;
47529;SDS011;33272;51.922;7.730;2023-12-28T13:29:45;4.20;;;2.20;;
47529;SDS011;33272;51.922;7.730;2023-12-28T13:32:12;8.33;;;2.87;;
47529;SDS011;33272;51.922;7.730;2023-12-28T13:34:39;8.13;;;2.97;;
47529;SDS011;33272;51.922;7.730;2023-12-28T13:37:05;7.00;;;2.47;;
47529;SDS011;33272;51.922;7.730;2023-12-28T13:39:32;6.40;;;2.33;;
47529;SDS011;33272;51.922;7.730;2023-12-28T13:42:03;10.47;;;3.10;;
47529;SDS011;33272;51.922;7.730;2023-12-28T13:44:33;7.13;;;2.23;;
47529;SDS011;33272;51.922;7.730;2023-12-28T13:47:00;10.17;;;2.87;;
47529;SDS011;33272;51.922;7.730;2023-12-28T13:49:27;8.50;;;2.80;;
47529;SDS011;33272;51.922;7.730;2023-12-28T13:51:53;10.17;;;3.07;;
47529;SDS011;33272;51.922;7.730;2023-12-28T13:54:20;8.93;;;3.03;;
47529;SDS011;33272;51.922;7.730;2023-12-28T13:56:47;9.40;;;2.77;;
47529;SDS011;33272;51.922;7.730;2023-12-28T13:59:14;10.23;;;2.67;;
47529;SDS011;33272;51.922;7.730;2023-12-28T14:01:42;7.50;;;2.33;;
47529;SDS011;33272;51.922;7.730;2023-12-28T14:04:09;6.97;;;2.70;;
47529;SDS011;33272;51.922;7.730;2023-12-28T14:06:35;7.77;;;2.50;;
47529;SDS011;33272;51.922;7.730;2023-12-28T14:09:02;5.73;;;2.63;;
47529;SDS011;33272;51.922;7.730;2023-12-28T14:11:28;6.73;;;2.30;;
47529;SDS011;33272;51.922;7.730;2023-12-28T14:13:55;8.13;;;2.77;;
47529;SDS011;33272;51.922;7.730;2023-12-28T14:16:22;10.00;;;3.00;;
47529;SDS011;33272;51.922;7.730;2023-12-28T14:18:50;8.67;;;3.30;;
47529;SDS011;33272;51.922;7.730;2023-12-28T14:21:17;7.13;;;2.77;;
47529;SDS011;33272;51.922;7.730;2023-12-28T14:23:44;7.30;;;2.90;;
47529;SDS011;33272;51.922;7.730;2023-12-28T14:26:12;9.03;;;2.47;;
47529;SDS011;33272;51.922;7.730;2023-12-28T14:28:40;7.30;;;2.77;;
47529;SDS011;33272;51.922;7.730;2023-12-28T14:31:07;7.77;;;3.03;;
47529;SDS011;33272;51.922;7.730;2023-12-28T14:33:35;7.10;;;2.77;;
47529;SDS011;33272;51.922;7.730;2023-12-28T14:36:03;7.37;;;2.23;;
47529;SDS011;33272;51.922;7.730;2023-12-28T14:38:31;6.47;;;2.37;;
47529;SDS011;33272;51.922;7.730;2023-12-28T14:40:58;7.93;;;2.23;;
47529;SDS011;33272;51.922;7.730;2023-12-28T14:43:24;9.07;;;2.83;;
47529;SDS011;33272;51.922;7.730;2023-12-28T14:45:51;8.00;;;2.43;;
47529;SDS011;33272;51.922;7.730;2023-12-28T14:48:18;8.60;;;2.70;;